Weather at Stavanger Airport Forus [CLOSED]

Public forecast

Using degrees Celsius for public forecast. Weather courtesy of forecast.io.

Closest aviation weather report (METAR) to Stavanger Airport Forus

Closest report is Stavanger Airport, Sola, 2.2 nm (4.1 km) WSW. Retrieved 2021/10/22 03:20 UTC (0 seconds ago):

ENZV 220320Z 34018G30KT 9999 VCSH FEW026 SCT059 BKN090 05/01 Q0993

Closest aviation forecast (TAF) to Stavanger Airport Forus

Closest forecast is Stavanger Airport, Sola, 2.2 nm (4.1 km) WSW. Retrieved 2021-10-22 00:57 UTC (2 hours ago):

TAF ENZV 212300Z 2200/2224 34020KT 9999 -SHRA FEW020TCU BKN030 TEMPO 2200/2212 34025G35KT 4000 SHRAGS BKN014 SCT020CB TEMPO 2212/2221 33030G40KT